createdAt,value
2023-01-09T00:00:07.631Z,8.57
2023-01-09T00:01:07.632Z,8.54
2023-01-09T00:02:07.660Z,8.50
2023-01-09T00:03:07.632Z,8.52
2023-01-09T00:04:07.613Z,8.58
2023-01-09T00:05:07.576Z,8.47
2023-01-09T00:06:07.581Z,8.68
2023-01-09T00:07:07.589Z,8.58
2023-01-09T00:08:07.634Z,8.58
2023-01-09T00:09:07.564Z,8.63
2023-01-09T00:10:07.604Z,8.58
2023-01-09T00:11:07.551Z,8.50
2023-01-09T00:12:07.562Z,8.65
2023-01-09T00:13:07.609Z,8.50
2023-01-09T00:14:08.403Z,8.58
2023-01-09T00:15:07.524Z,8.67
2023-01-09T00:16:08.528Z,8.58
2023-01-09T00:17:07.539Z,8.32
2023-01-09T00:18:07.562Z,8.42
2023-01-09T00:19:07.487Z,8.25
2023-01-09T00:20:07.579Z,8.21
2023-01-09T00:21:07.543Z,8.24
2023-01-09T00:22:07.485Z,8.22
2023-01-09T00:23:07.502Z,8.24
2023-01-09T00:24:07.498Z,8.37
2023-01-09T00:25:07.520Z,8.31
2023-01-09T00:26:07.496Z,8.29
2023-01-09T00:27:07.519Z,8.28
2023-01-09T00:28:07.515Z,8.43
2023-01-09T00:29:07.463Z,8.49
2023-01-09T00:30:07.466Z,8.42
2023-01-09T00:31:07.549Z,8.45
2023-01-09T00:32:07.481Z,8.49
2023-01-09T00:33:07.487Z,8.42
2023-01-09T00:34:07.467Z,8.49
2023-01-09T00:35:07.432Z,8.42
2023-01-09T00:36:07.561Z,8.43
2023-01-09T00:37:07.440Z,8.36
2023-01-09T00:38:07.434Z,8.04
2023-01-09T00:39:07.429Z,8.03
2023-01-09T00:40:07.396Z,8.13
2023-01-09T00:41:07.428Z,8.09
2023-01-09T00:42:07.414Z,8.12
2023-01-09T00:43:07.423Z,8.03
2023-01-09T00:44:07.413Z,8.09
2023-01-09T00:45:07.419Z,8.13
2023-01-09T00:46:07.485Z,8.07
2023-01-09T00:47:07.399Z,8.14
2023-01-09T00:48:07.457Z,8.10
2023-01-09T00:49:07.379Z,8.07
2023-01-09T00:50:07.396Z,8.10
2023-01-09T00:51:07.357Z,8.00
2023-01-09T00:52:07.339Z,8.20
2023-01-09T00:53:07.347Z,8.10
2023-01-09T00:54:07.385Z,8.18
2023-01-09T00:55:07.362Z,8.17
2023-01-09T00:56:07.367Z,8.04
2023-01-09T00:57:07.332Z,8.17
2023-01-09T00:58:07.367Z,8.14
2023-01-09T00:59:07.316Z,8.03
2023-01-09T01:00:07.328Z,8.06
2023-01-09T01:01:07.427Z,8.09
2023-01-09T01:02:07.520Z,8.12
2023-01-09T01:03:07.368Z,7.99
2023-01-09T01:04:07.323Z,8.14
2023-01-09T01:05:07.308Z,8.20
2023-01-09T01:06:07.287Z,8.13
2023-01-09T01:07:07.281Z,8.17
2023-01-09T01:08:07.313Z,8.25
2023-01-09T01:09:07.292Z,8.24
2023-01-09T01:10:07.279Z,8.18
2023-01-09T01:11:07.277Z,8.22
2023-01-09T01:12:07.503Z,8.27
2023-01-09T01:13:07.299Z,8.09
2023-01-09T01:14:07.299Z,8.10
2023-01-09T01:15:07.326Z,8.22
2023-01-09T01:16:07.242Z,8.14
2023-01-09T01:17:07.232Z,8.12
2023-01-09T01:18:07.225Z,8.18
2023-01-09T01:19:07.257Z,8.25
2023-01-09T01:20:07.207Z,8.13
2023-01-09T01:21:07.211Z,8.25
2023-01-09T01:22:07.225Z,8.25
2023-01-09T01:23:07.196Z,8.14
2023-01-09T01:24:07.252Z,8.29
2023-01-09T01:25:07.232Z,8.22
2023-01-09T01:26:07.196Z,8.18
2023-01-09T01:27:07.183Z,8.14
2023-01-09T01:28:07.183Z,8.12
2023-01-09T01:29:07.180Z,8.24
2023-01-09T01:30:07.191Z,8.24
2023-01-09T01:31:07.212Z,8.17
2023-01-09T01:32:07.151Z,8.13
2023-01-09T01:33:07.176Z,8.12
2023-01-09T01:34:07.146Z,8.07
2023-01-09T01:35:07.147Z,8.17
2023-01-09T01:36:07.171Z,8.20
2023-01-09T01:37:07.184Z,8.18
2023-01-09T01:38:07.124Z,8.27
2023-01-09T01:39:07.111Z,8.18
2023-01-09T01:40:07.152Z,8.22
2023-01-09T01:41:07.122Z,8.24
2023-01-09T01:42:07.156Z,8.29
2023-01-09T01:43:07.094Z,8.24
2023-01-09T01:44:08.082Z,8.32
2023-01-09T01:45:07.115Z,8.31
2023-01-09T01:46:07.110Z,8.13
2023-01-09T01:47:07.139Z,8.18
2023-01-09T01:48:07.059Z,8.18
2023-01-09T01:49:07.068Z,8.14
2023-01-09T01:50:07.075Z,8.18
2023-01-09T01:51:07.048Z,8.21
2023-01-09T01:52:07.093Z,8.12
2023-01-09T01:53:07.053Z,8.25
2023-01-09T01:54:07.055Z,8.06
2023-01-09T01:55:07.056Z,8.17
2023-01-09T01:56:07.064Z,8.12
2023-01-09T01:57:07.037Z,8.10
2023-01-09T01:58:07.079Z,8.09
2023-01-09T01:59:07.088Z,8.14
2023-01-09T02:00:07.038Z,8.04
2023-01-09T02:01:07.098Z,8.03
2023-01-09T02:02:07.166Z,8.13
2023-01-09T02:03:07.041Z,8.18
2023-01-09T02:04:07.120Z,8.14
2023-01-09T02:05:06.994Z,8.14
2023-01-09T02:06:06.997Z,8.17
2023-01-09T02:07:07.038Z,8.10
2023-01-09T02:08:06.977Z,8.12
2023-01-09T02:09:07.028Z,8.13
2023-01-09T02:10:06.988Z,8.13
2023-01-09T02:11:06.961Z,8.20
2023-01-09T02:12:06.953Z,8.18
2023-01-09T02:13:07.023Z,8.13
2023-01-09T02:14:06.961Z,8.14
2023-01-09T02:15:07.034Z,8.12
2023-01-09T02:16:06.972Z,8.28
2023-01-09T02:17:06.945Z,8.10
2023-01-09T02:18:06.937Z,8.18
2023-01-09T02:19:06.932Z,8.14
2023-01-09T02:20:06.966Z,8.18
2023-01-09T02:21:06.936Z,8.22
2023-01-09T02:22:06.960Z,8.25
2023-01-09T02:23:06.906Z,8.27
2023-01-09T02:24:06.898Z,8.25
2023-01-09T02:25:06.955Z,8.17
2023-01-09T02:26:06.943Z,8.18
2023-01-09T02:27:06.971Z,8.14
2023-01-09T02:28:06.902Z,8.20
2023-01-09T02:29:06.883Z,8.18
2023-01-09T02:30:06.866Z,8.25
2023-01-09T02:31:06.898Z,8.22
2023-01-09T02:32:06.867Z,8.20
2023-01-09T02:33:06.874Z,8.31
2023-01-09T02:34:06.868Z,8.20
2023-01-09T02:35:06.888Z,8.17
2023-01-09T02:36:06.907Z,8.28
2023-01-09T02:37:06.920Z,8.21
2023-01-09T02:38:06.836Z,8.27
2023-01-09T02:39:06.818Z,8.28
2023-01-09T02:40:06.815Z,8.25
2023-01-09T02:41:06.868Z,8.29
2023-01-09T02:42:06.862Z,8.39
2023-01-09T02:43:06.815Z,8.37
2023-01-09T02:44:07.876Z,8.43
2023-01-09T02:45:06.823Z,8.29
2023-01-09T02:46:06.849Z,8.37
2023-01-09T02:47:06.909Z,8.31
2023-01-09T02:48:06.805Z,8.36
2023-01-09T02:49:06.796Z,8.40
2023-01-09T02:50:06.873Z,8.39
2023-01-09T02:51:06.881Z,8.46
2023-01-09T02:52:06.906Z,8.43
2023-01-09T02:53:07.055Z,8.42
2023-01-09T02:54:07.775Z,8.37
2023-01-09T02:55:06.746Z,8.40
2023-01-09T02:56:06.764Z,8.55
2023-01-09T02:57:06.776Z,8.52
2023-01-09T02:58:06.753Z,8.49
2023-01-09T02:59:06.774Z,8.46
2023-01-09T03:00:06.771Z,8.42
2023-01-09T03:01:07.021Z,8.47
2023-01-09T03:02:06.775Z,8.45
2023-01-09T03:03:06.845Z,8.39
2023-01-09T03:04:07.866Z,8.45
2023-01-09T03:05:06.724Z,8.45
2023-01-09T03:06:06.748Z,8.42
2023-01-09T03:07:06.711Z,8.46
2023-01-09T03:08:06.736Z,8.37
2023-01-09T03:09:06.802Z,8.50
2023-01-09T03:10:06.696Z,8.45
2023-01-09T03:11:06.880Z,8.39
2023-01-09T03:12:06.677Z,8.45
2023-01-09T03:13:06.692Z,8.45
2023-01-09T03:14:06.718Z,8.40
2023-01-09T03:15:06.832Z,8.43
2023-01-09T03:16:06.747Z,8.47
2023-01-09T03:17:06.816Z,8.42
2023-01-09T03:18:06.655Z,8.37
2023-01-09T03:19:06.650Z,8.39
2023-01-09T03:20:06.666Z,8.42
2023-01-09T03:21:06.706Z,8.42
2023-01-09T03:22:06.892Z,8.40
2023-01-09T03:23:06.629Z,8.39
2023-01-09T03:24:06.755Z,8.34
2023-01-09T03:25:06.740Z,8.31
2023-01-09T03:26:06.744Z,8.43
2023-01-09T03:27:06.719Z,8.28
2023-01-09T03:28:06.596Z,8.24
2023-01-09T03:29:06.627Z,8.31
2023-01-09T03:30:06.599Z,8.25
2023-01-09T03:31:06.801Z,8.29
2023-01-09T03:32:06.692Z,8.22
2023-01-09T03:33:06.816Z,8.25
2023-01-09T03:34:06.579Z,8.25
2023-01-09T03:35:06.591Z,8.24
2023-01-09T03:36:06.602Z,8.28
2023-01-09T03:37:06.568Z,8.31
2023-01-09T03:38:07.981Z,8.29
2023-01-09T03:39:07.567Z,8.20
2023-01-09T03:40:06.537Z,8.21
2023-01-09T03:41:06.621Z,8.25
2023-01-09T03:42:06.558Z,8.20
2023-01-09T03:43:06.545Z,8.22
2023-01-09T03:44:06.545Z,8.22
2023-01-09T03:45:06.534Z,8.20
2023-01-09T03:46:06.647Z,8.24
2023-01-09T03:47:06.593Z,8.22
2023-01-09T03:48:06.516Z,8.18
2023-01-09T03:49:06.609Z,8.14
2023-01-09T03:50:06.501Z,8.18
2023-01-09T03:51:06.511Z,8.17
2023-01-09T03:52:06.565Z,8.12
2023-01-09T03:53:06.484Z,8.09
2023-01-09T03:54:06.509Z,8.17
2023-01-09T03:55:06.463Z,8.10
2023-01-09T03:56:06.502Z,8.12
2023-01-09T03:57:06.525Z,8.10
2023-01-09T03:58:06.472Z,8.13
2023-01-09T03:59:06.521Z,8.09
2023-01-09T04:00:06.473Z,8.07
2023-01-09T04:01:06.674Z,8.12
2023-01-09T04:02:06.593Z,8.13
2023-01-09T04:03:06.446Z,8.10
2023-01-09T04:04:06.502Z,8.09
2023-01-09T04:05:06.437Z,8.10
2023-01-09T04:06:06.410Z,8.10
2023-01-09T04:07:06.413Z,8.09
2023-01-09T04:08:06.426Z,8.13
2023-01-09T04:09:06.447Z,8.04
2023-01-09T04:10:06.399Z,7.94
2023-01-09T04:11:06.412Z,8.04
2023-01-09T04:12:06.413Z,8.03
2023-01-09T04:13:06.367Z,7.88
2023-01-09T04:14:06.408Z,7.91
2023-01-09T04:15:06.389Z,7.94
2023-01-09T04:16:06.406Z,8.07
2023-01-09T04:17:06.459Z,8.00
2023-01-09T04:18:06.389Z,8.07
2023-01-09T04:19:06.394Z,8.10
2023-01-09T04:20:06.345Z,8.10
2023-01-09T04:21:06.337Z,8.07
2023-01-09T04:22:06.328Z,8.09
2023-01-09T04:23:06.342Z,8.07
2023-01-09T04:24:06.365Z,8.03
2023-01-09T04:25:06.346Z,8.04
2023-01-09T04:26:06.333Z,8.02
2023-01-09T04:27:06.388Z,8.00
2023-01-09T04:28:06.300Z,7.95
2023-01-09T04:29:06.306Z,7.94
2023-01-09T04:30:06.337Z,7.99
2023-01-09T04:31:06.291Z,7.88
2023-01-09T04:32:06.283Z,7.94
2023-01-09T04:33:06.367Z,7.91
2023-01-09T04:34:06.265Z,7.96
2023-01-09T04:35:06.290Z,7.88
2023-01-09T04:36:06.305Z,7.89
2023-01-09T04:37:06.277Z,7.94
2023-01-09T04:38:06.281Z,7.92
2023-01-09T04:39:06.257Z,7.88
2023-01-09T04:40:06.259Z,7.86
2023-01-09T04:41:06.282Z,7.91
2023-01-09T04:42:06.255Z,7.84
2023-01-09T04:43:06.235Z,7.85
2023-01-09T04:44:06.233Z,7.88
2023-01-09T04:45:06.241Z,7.85
2023-01-09T04:46:06.285Z,7.94
2023-01-09T04:47:06.287Z,7.91
2023-01-09T04:48:06.259Z,7.96
2023-01-09T04:49:06.203Z,7.85
2023-01-09T04:50:06.198Z,7.91
2023-01-09T04:51:06.182Z,7.84
2023-01-09T04:52:06.220Z,7.86
2023-01-09T04:53:06.253Z,7.79
2023-01-09T04:54:06.177Z,7.81
2023-01-09T04:55:06.160Z,7.88
2023-01-09T04:56:06.215Z,7.81
2023-01-09T04:57:06.189Z,7.82
2023-01-09T04:58:06.165Z,7.82
2023-01-09T04:59:06.177Z,7.81
2023-01-09T05:00:07.163Z,7.81
2023-01-09T05:01:06.298Z,7.85
2023-01-09T05:02:06.341Z,7.86
2023-01-09T05:03:06.178Z,7.77
2023-01-09T05:04:06.226Z,7.82
2023-01-09T05:05:06.116Z,7.81
2023-01-09T05:06:06.129Z,7.82
2023-01-09T05:07:06.115Z,7.84
2023-01-09T05:08:06.133Z,7.86
2023-01-09T05:09:06.128Z,7.92
2023-01-09T05:10:06.185Z,7.95
2023-01-09T05:11:06.105Z,7.92
2023-01-09T05:12:06.090Z,7.89
2023-01-09T05:13:06.105Z,7.91
2023-01-09T05:14:06.121Z,7.91
2023-01-09T05:15:06.064Z,7.99
2023-01-09T05:16:06.097Z,7.94
2023-01-09T05:17:06.086Z,7.91
2023-01-09T05:18:06.060Z,8.00
2023-01-09T05:19:06.122Z,7.91
2023-01-09T05:20:06.074Z,8.00
2023-01-09T05:21:06.068Z,8.02
2023-01-09T05:22:06.127Z,7.96
2023-01-09T05:23:06.049Z,7.92
2023-01-09T05:24:06.077Z,8.00
2023-01-09T05:25:06.081Z,8.02
2023-01-09T05:26:06.025Z,7.96
2023-01-09T05:27:06.011Z,8.02
2023-01-09T05:28:06.017Z,7.91
2023-01-09T05:29:06.213Z,7.96
2023-01-09T05:30:06.038Z,8.02
2023-01-09T05:31:06.043Z,7.94
2023-01-09T05:32:05.981Z,8.04
2023-01-09T05:33:05.985Z,7.99
2023-01-09T05:34:06.001Z,8.00
2023-01-09T05:35:06.088Z,8.07
2023-01-09T05:36:06.008Z,8.07
2023-01-09T05:37:05.972Z,8.00
2023-01-09T05:38:05.990Z,7.99
2023-01-09T05:39:05.963Z,8.06
2023-01-09T05:40:06.089Z,8.02
2023-01-09T05:41:06.011Z,8.06
2023-01-09T05:42:05.950Z,7.94
2023-01-09T05:43:05.944Z,7.84
2023-01-09T05:44:05.930Z,7.96
2023-01-09T05:45:06.031Z,8.00
2023-01-09T05:46:06.006Z,7.84
2023-01-09T05:47:05.924Z,7.84
2023-01-09T05:48:05.918Z,7.82
2023-01-09T05:49:05.898Z,7.70
2023-01-09T05:50:05.981Z,7.82
2023-01-09T05:51:05.968Z,7.73
2023-01-09T05:52:05.938Z,7.79
2023-01-09T05:53:05.875Z,7.81
2023-01-09T05:54:05.882Z,7.74
2023-01-09T05:55:06.028Z,7.74
2023-01-09T05:56:05.900Z,7.76
2023-01-09T05:57:05.869Z,7.67
2023-01-09T05:58:06.027Z,7.70
2023-01-09T05:59:05.847Z,7.66
2023-01-09T06:00:05.860Z,7.58
2023-01-09T06:01:05.980Z,7.57
2023-01-09T06:02:05.969Z,7.57
2023-01-09T06:03:05.989Z,7.45
2023-01-09T06:04:05.868Z,7.44
2023-01-09T06:05:05.825Z,7.47
2023-01-09T06:06:05.864Z,7.58
2023-01-09T06:07:06.876Z,7.44
2023-01-09T06:08:05.805Z,7.45
2023-01-09T06:09:05.796Z,7.48
2023-01-09T06:10:05.829Z,7.42
2023-01-09T06:11:05.781Z,7.62
2023-01-09T06:12:05.837Z,7.47
2023-01-09T06:13:05.786Z,7.48
2023-01-09T06:14:05.842Z,7.48
2023-01-09T06:15:08.667Z,7.34
2023-01-09T06:16:07.042Z,7.30
2023-01-09T06:17:05.879Z,7.32
2023-01-09T06:18:05.763Z,7.21
2023-01-09T06:19:05.751Z,7.21
2023-01-09T06:20:05.959Z,7.09
2023-01-09T06:21:05.805Z,7.26
2023-01-09T06:22:05.736Z,7.15
2023-01-09T06:23:05.804Z,7.07
2023-01-09T06:24:05.768Z,7.12
2023-01-09T06:25:05.756Z,7.08
2023-01-09T06:26:05.761Z,7.18
2023-01-09T06:27:05.797Z,7.12
2023-01-09T06:28:05.711Z,7.08
2023-01-09T06:29:05.723Z,7.19
2023-01-09T06:30:05.694Z,7.14
2023-01-09T06:31:05.807Z,7.24
2023-01-09T06:32:05.721Z,7.21
2023-01-09T06:33:05.768Z,7.23
2023-01-09T06:34:05.663Z,7.27
2023-01-09T06:35:05.768Z,7.26
2023-01-09T06:36:05.695Z,7.21
2023-01-09T06:37:05.661Z,7.16
2023-01-09T06:38:05.674Z,7.16
2023-01-09T06:39:05.636Z,6.97
2023-01-09T06:40:05.730Z,6.86
2023-01-09T06:41:05.680Z,6.89
2023-01-09T06:42:05.641Z,6.86
2023-01-09T06:43:05.645Z,6.73
2023-01-09T06:44:05.618Z,6.83
2023-01-09T06:45:05.619Z,6.87
2023-01-09T06:46:05.784Z,6.90
2023-01-09T06:47:05.669Z,6.79
2023-01-09T06:48:05.596Z,6.91
2023-01-09T06:49:05.579Z,7.00
2023-01-09T06:50:05.574Z,6.97
2023-01-09T06:51:05.574Z,7.07
2023-01-09T06:52:05.755Z,7.12
2023-01-09T06:53:05.585Z,7.05
2023-01-09T06:54:05.686Z,7.04
2023-01-09T06:55:05.556Z,7.08
2023-01-09T06:56:05.565Z,7.01
2023-01-09T06:57:05.537Z,6.96
2023-01-09T06:58:05.616Z,6.93
2023-01-09T06:59:05.584Z,7.05
2023-01-09T07:00:05.549Z,7.01
2023-01-09T07:01:05.705Z,7.05
2023-01-09T07:02:05.571Z,7.07
2023-01-09T07:03:05.513Z,7.08
2023-01-09T07:04:05.576Z,7.00
2023-01-09T07:05:05.488Z,6.99
2023-01-09T07:06:05.529Z,6.99
2023-01-09T07:07:05.535Z,6.99
2023-01-09T07:08:05.521Z,7.00
2023-01-09T07:09:05.467Z,7.08
2023-01-09T07:10:05.486Z,7.04
2023-01-09T07:11:05.472Z,7.04
2023-01-09T07:12:05.435Z,6.99
2023-01-09T07:13:05.428Z,6.94
2023-01-09T07:14:05.431Z,7.05
2023-01-09T07:15:05.628Z,6.93
2023-01-09T07:16:05.475Z,7.05
2023-01-09T07:17:05.430Z,6.96
2023-01-09T07:18:05.412Z,7.07
2023-01-09T07:19:05.412Z,7.11
2023-01-09T07:20:05.469Z,6.99
2023-01-09T07:21:05.388Z,7.12
2023-01-09T07:22:05.535Z,7.15
2023-01-09T07:23:05.432Z,7.09
2023-01-09T07:24:05.407Z,7.12
2023-01-09T07:25:05.428Z,6.93
2023-01-09T07:26:05.466Z,6.93
2023-01-09T07:27:05.394Z,6.93
2023-01-09T07:28:05.364Z,6.97
2023-01-09T07:29:05.390Z,6.91
2023-01-09T07:30:05.356Z,6.94
2023-01-09T07:31:05.395Z,6.93
2023-01-09T07:32:05.413Z,6.96
2023-01-09T07:33:05.343Z,6.97
2023-01-09T07:34:05.339Z,6.96
2023-01-09T07:35:05.317Z,7.14
2023-01-09T07:36:05.380Z,7.08
2023-01-09T07:37:05.345Z,7.16
2023-01-09T07:38:05.307Z,7.15
2023-01-09T07:39:05.279Z,7.16
2023-01-09T07:40:05.289Z,7.21
2023-01-09T07:41:05.277Z,7.23
2023-01-09T07:42:05.326Z,7.26
2023-01-09T07:43:05.304Z,7.18
2023-01-09T07:44:05.280Z,7.09
2023-01-09T07:45:06.274Z,7.04
2023-01-09T07:46:05.272Z,7.12
2023-01-09T07:47:05.289Z,7.14
2023-01-09T07:48:05.298Z,7.21
2023-01-09T07:49:05.269Z,7.14
2023-01-09T07:50:05.226Z,7.12
2023-01-09T07:51:05.501Z,6.96
2023-01-09T07:52:05.313Z,6.97
2023-01-09T07:53:05.253Z,6.99
2023-01-09T07:54:05.245Z,7.04
2023-01-09T07:55:05.268Z,6.94
2023-01-09T07:56:05.213Z,6.97
2023-01-09T07:57:05.215Z,7.08
2023-01-09T07:58:05.180Z,7.04
2023-01-09T07:59:05.206Z,7.11
2023-01-09T08:00:05.222Z,7.01
2023-01-09T08:01:05.258Z,7.00
2023-01-09T08:02:05.225Z,7.12
2023-01-09T08:03:05.249Z,7.14
2023-01-09T08:04:05.193Z,7.14
2023-01-09T08:05:05.164Z,7.12
2023-01-09T08:06:05.191Z,7.14
2023-01-09T08:07:05.177Z,7.15
2023-01-09T08:08:05.143Z,7.08
2023-01-09T08:09:05.139Z,7.08
2023-01-09T08:10:05.177Z,7.05
2023-01-09T08:11:05.228Z,7.00
2023-01-09T08:12:05.148Z,7.04
2023-01-09T08:13:05.108Z,7.14
2023-01-09T08:14:05.124Z,7.12
2023-01-09T08:15:05.140Z,7.08
2023-01-09T08:16:05.196Z,7.04
2023-01-09T08:17:05.130Z,6.99
2023-01-09T08:18:05.102Z,7.00
2023-01-09T08:19:05.081Z,6.96
2023-01-09T08:20:05.074Z,6.97
2023-01-09T08:21:05.102Z,6.91
2023-01-09T08:22:05.117Z,6.89
2023-01-09T08:23:05.060Z,6.91
2023-01-09T08:24:05.115Z,6.96
2023-01-09T08:25:05.056Z,6.93
2023-01-09T08:26:05.042Z,7.04
2023-01-09T08:27:06.021Z,6.96
2023-01-09T08:28:05.068Z,7.00
2023-01-09T08:29:05.032Z,7.00
2023-01-09T08:30:05.047Z,6.99
2023-01-09T08:31:05.122Z,7.05
2023-01-09T08:32:04.994Z,6.99
2023-01-09T08:33:05.009Z,7.05
2023-01-09T08:34:05.002Z,7.11
2023-01-09T08:35:05.099Z,7.04
2023-01-09T08:36:05.123Z,7.14
2023-01-09T08:37:04.974Z,7.11
2023-01-09T08:38:04.982Z,7.16
2023-01-09T08:39:04.990Z,7.21
2023-01-09T08:40:04.961Z,7.11
2023-01-09T08:41:05.020Z,7.12
2023-01-09T08:42:04.973Z,7.21
2023-01-09T08:43:04.969Z,7.23
2023-01-09T08:44:05.945Z,7.07
2023-01-09T08:45:04.943Z,7.19
2023-01-09T08:46:05.095Z,7.19
2023-01-09T08:47:04.919Z,7.14
2023-01-09T08:48:04.918Z,7.15
2023-01-09T08:49:04.963Z,7.16
2023-01-09T08:50:04.912Z,7.18
2023-01-09T08:51:05.070Z,7.16
2023-01-09T08:52:04.966Z,7.11
2023-01-09T08:53:04.908Z,7.18
2023-01-09T08:54:04.886Z,7.01
2023-01-09T08:55:04.947Z,7.05
2023-01-09T08:56:04.873Z,7.07
2023-01-09T08:57:04.936Z,7.12
2023-01-09T08:58:04.867Z,7.26
2023-01-09T08:59:04.875Z,7.21
2023-01-09T09:00:04.848Z,7.27
2023-01-09T09:01:04.859Z,7.30
2023-01-09T09:02:04.968Z,7.47
2023-01-09T09:03:05.046Z,7.48
2023-01-09T09:04:04.902Z,7.60
2023-01-09T09:05:04.879Z,7.69
2023-01-09T09:06:05.889Z,7.63
2023-01-09T09:07:04.874Z,7.47
2023-01-09T09:08:04.872Z,7.42
2023-01-09T09:09:04.857Z,7.42
2023-01-09T09:10:04.823Z,7.44
2023-01-09T09:11:04.808Z,7.47
2023-01-09T09:12:04.826Z,7.45
2023-01-09T09:13:04.822Z,7.58
2023-01-09T09:14:04.828Z,7.50
2023-01-09T09:15:04.816Z,7.60
2023-01-09T09:16:04.937Z,7.50
2023-01-09T09:17:04.769Z,7.45
2023-01-09T09:18:04.754Z,7.32
2023-01-09T09:19:04.771Z,7.27
2023-01-09T09:20:04.755Z,7.33
2023-01-09T09:21:04.787Z,7.42
2023-01-09T09:22:04.808Z,7.36
2023-01-09T09:23:04.738Z,7.36
2023-01-09T09:24:04.767Z,7.41
2023-01-09T09:25:04.836Z,7.42
2023-01-09T09:26:04.837Z,7.41
2023-01-09T09:27:04.810Z,7.47
2023-01-09T09:28:04.820Z,7.29
2023-01-09T09:29:04.728Z,7.33
2023-01-09T09:30:04.733Z,7.30
2023-01-09T09:31:04.791Z,7.44
2023-01-09T09:32:04.791Z,7.44
2023-01-09T09:33:04.700Z,7.47
2023-01-09T09:34:04.700Z,7.58
2023-01-09T09:35:04.803Z,7.44
2023-01-09T09:36:05.167Z,7.63
2023-01-09T09:37:04.718Z,7.55
2023-01-09T09:38:05.566Z,7.50
2023-01-09T09:39:05.692Z,7.57
2023-01-09T09:40:17.515Z,7.48
2023-01-09T09:41:06.714Z,7.52
2023-01-09T09:42:04.666Z,7.48
2023-01-09T09:43:04.695Z,7.44
2023-01-09T09:44:04.787Z,7.39
2023-01-09T09:45:04.640Z,7.39
2023-01-09T09:46:04.711Z,7.37
2023-01-09T09:47:04.646Z,7.45
2023-01-09T09:48:04.659Z,7.52
2023-01-09T09:49:07.019Z,7.44
2023-01-09T09:50:04.620Z,7.45
2023-01-09T09:51:04.638Z,7.50
2023-01-09T09:52:04.608Z,7.47
2023-01-09T09:53:04.649Z,7.57
2023-01-09T09:54:04.612Z,7.55
2023-01-09T09:55:04.654Z,7.52
2023-01-09T09:56:04.656Z,7.39
2023-01-09T09:57:04.643Z,7.41
2023-01-09T09:58:04.579Z,7.47
2023-01-09T09:59:04.589Z,7.52
2023-01-09T10:00:04.592Z,7.47
2023-01-09T10:01:04.550Z,7.63
2023-01-09T10:02:04.658Z,7.48
2023-01-09T10:03:04.563Z,7.69
2023-01-09T10:04:04.607Z,7.91
2023-01-09T10:05:04.541Z,8.06
2023-01-09T10:06:04.560Z,8.24
2023-01-09T10:07:04.591Z,8.40
2023-01-09T10:08:15.448Z,8.58
2023-01-09T10:09:06.561Z,8.65
2023-01-09T10:10:04.526Z,8.63
2023-01-09T10:11:04.524Z,8.67
2023-01-09T10:12:04.530Z,8.60
2023-01-09T10:13:04.598Z,8.64
2023-01-09T10:14:08.244Z,8.64
2023-01-09T10:15:05.616Z,8.70
2023-01-09T10:16:04.546Z,8.55
2023-01-09T10:17:04.483Z,8.47
2023-01-09T10:18:04.522Z,8.57
2023-01-09T10:19:04.498Z,8.42
2023-01-09T10:20:04.537Z,8.37
2023-01-09T10:21:04.478Z,8.43
2023-01-09T10:22:04.493Z,8.42
2023-01-09T10:23:04.457Z,8.39
2023-01-09T10:24:05.520Z,8.42
2023-01-09T10:25:04.579Z,8.31
2023-01-09T10:26:04.459Z,8.36
2023-01-09T10:27:04.460Z,8.27
2023-01-09T10:28:04.527Z,8.27
2023-01-09T10:29:04.504Z,8.22
2023-01-09T10:30:04.514Z,8.14
2023-01-09T10:31:04.506Z,8.09
2023-01-09T10:32:05.480Z,8.14
2023-01-09T10:33:04.420Z,8.14
2023-01-09T10:34:04.414Z,8.14
2023-01-09T10:35:04.412Z,8.13
2023-01-09T10:36:04.420Z,7.94
2023-01-09T10:37:04.519Z,8.12
2023-01-09T10:38:04.387Z,8.12
2023-01-09T10:39:04.384Z,8.18
2023-01-09T10:40:04.390Z,8.12
2023-01-09T10:41:04.366Z,8.09
2023-01-09T10:42:04.430Z,8.10
2023-01-09T10:43:04.380Z,8.04
2023-01-09T10:44:04.397Z,8.12
2023-01-09T10:45:04.400Z,8.04
2023-01-09T10:46:04.454Z,8.03
2023-01-09T10:47:04.349Z,8.03
2023-01-09T10:48:04.364Z,8.09
2023-01-09T10:49:04.341Z,8.13
2023-01-09T10:50:04.374Z,8.07
2023-01-09T10:51:04.391Z,8.10
2023-01-09T10:52:04.313Z,8.09
2023-01-09T10:53:04.334Z,8.07
2023-01-09T10:54:04.326Z,8.10
2023-01-09T10:55:04.309Z,8.12
2023-01-09T10:56:04.359Z,8.12
2023-01-09T10:57:04.371Z,8.14
2023-01-09T10:58:04.295Z,8.03
2023-01-09T10:59:04.284Z,8.12
2023-01-09T11:00:04.275Z,7.99
2023-01-09T11:01:04.279Z,8.13
2023-01-09T11:02:04.359Z,8.07
2023-01-09T11:03:04.347Z,8.12
2023-01-09T11:04:04.277Z,8.13
2023-01-09T11:05:04.262Z,8.12
2023-01-09T11:06:04.283Z,8.18
2023-01-09T11:07:04.290Z,8.02
2023-01-09T11:08:04.270Z,8.13
2023-01-09T11:09:04.248Z,8.13
2023-01-09T11:10:04.249Z,8.17
2023-01-09T11:11:04.359Z,8.18
2023-01-09T11:12:04.289Z,8.25
2023-01-09T11:13:04.232Z,8.18
2023-01-09T11:14:04.228Z,8.18
2023-01-09T11:15:04.219Z,8.17
2023-01-09T11:16:04.315Z,8.12
2023-01-09T11:17:04.257Z,8.07
2023-01-09T11:18:04.191Z,8.10
2023-01-09T11:19:04.246Z,8.12
2023-01-09T11:20:04.205Z,8.22
2023-01-09T11:21:04.186Z,8.14
2023-01-09T11:22:04.193Z,8.14
2023-01-09T11:23:04.208Z,8.32
2023-01-09T11:24:04.220Z,8.22
2023-01-09T11:25:04.158Z,8.24
2023-01-09T11:26:04.181Z,8.24
2023-01-09T11:27:04.171Z,8.21
2023-01-09T11:28:04.168Z,8.27
2023-01-09T11:29:04.182Z,8.21
2023-01-09T11:30:04.132Z,8.31
2023-01-09T11:31:04.175Z,8.22
2023-01-09T11:32:04.127Z,8.17
2023-01-09T11:33:04.122Z,8.18
2023-01-09T11:34:04.185Z,8.18
2023-01-09T11:35:04.193Z,8.21
2023-01-09T11:36:04.153Z,8.20
2023-01-09T11:37:04.138Z,8.22
2023-01-09T11:38:04.111Z,8.21
2023-01-09T11:39:05.120Z,8.21
2023-01-09T11:40:04.091Z,8.27
2023-01-09T11:41:04.155Z,8.09
2023-01-09T11:42:04.152Z,8.12
2023-01-09T11:43:04.087Z,8.18
2023-01-09T11:44:04.074Z,8.17
2023-01-09T11:45:04.100Z,8.09
2023-01-09T11:46:04.248Z,8.18
2023-01-09T11:47:04.105Z,8.18
2023-01-09T11:48:04.140Z,8.20
2023-01-09T11:49:04.049Z,8.10
2023-01-09T11:50:04.051Z,8.14
2023-01-09T11:51:04.324Z,8.14
2023-01-09T11:52:04.055Z,8.10
2023-01-09T11:53:04.048Z,8.03
2023-01-09T11:54:04.040Z,8.10
2023-01-09T11:55:04.046Z,7.95
2023-01-09T11:56:04.070Z,7.96
2023-01-09T11:57:04.023Z,7.94
2023-01-09T11:58:04.099Z,8.02
2023-01-09T11:59:04.012Z,7.92
2023-01-09T12:00:04.009Z,7.91
2023-01-09T12:01:04.004Z,7.95
2023-01-09T12:02:04.025Z,8.06
2023-01-09T12:03:04.091Z,8.09
2023-01-09T12:04:04.023Z,8.18
2023-01-09T12:05:03.977Z,8.10
2023-01-09T12:06:04.015Z,8.14
2023-01-09T12:07:03.984Z,8.18
2023-01-09T12:08:04.038Z,8.27
2023-01-09T12:09:03.962Z,8.21
2023-01-09T12:10:03.943Z,8.12
2023-01-09T12:11:03.975Z,8.17
2023-01-09T12:12:03.969Z,8.22
2023-01-09T12:13:04.047Z,8.27
2023-01-09T12:14:04.099Z,8.32
2023-01-09T12:15:03.935Z,8.29
2023-01-09T12:16:04.077Z,8.31
2023-01-09T12:17:03.912Z,8.45
2023-01-09T12:18:03.943Z,8.64
2023-01-09T12:19:03.944Z,8.82
2023-01-09T12:20:03.911Z,8.88
2023-01-09T12:21:03.944Z,8.96
2023-01-09T12:22:03.885Z,8.86
2023-01-09T12:23:03.973Z,8.98
2023-01-09T12:24:03.929Z,8.94
2023-01-09T12:25:03.898Z,8.94
2023-01-09T12:26:03.877Z,8.88
2023-01-09T12:27:03.967Z,8.97
2023-01-09T12:28:03.866Z,9.01
2023-01-09T12:29:03.854Z,9.08
2023-01-09T12:30:03.848Z,8.98
2023-01-09T12:31:03.895Z,8.96
2023-01-09T12:32:03.970Z,9.03
2023-01-09T12:33:03.879Z,9.10
2023-01-09T12:34:03.874Z,8.96
2023-01-09T12:35:03.891Z,8.94
2023-01-09T12:36:03.951Z,8.86
2023-01-09T12:37:04.010Z,8.86
2023-01-09T12:38:03.860Z,8.78
2023-01-09T12:39:03.812Z,8.82
2023-01-09T12:40:03.918Z,8.80
2023-01-09T12:41:04.976Z,8.78
2023-01-09T12:42:03.809Z,8.60
2023-01-09T12:43:04.809Z,8.61
2023-01-09T12:44:03.811Z,8.75
2023-01-09T12:45:03.825Z,8.78
2023-01-09T12:46:03.829Z,8.82
2023-01-09T12:47:03.828Z,9.04
2023-01-09T12:48:03.771Z,9.15
2023-01-09T12:49:03.775Z,9.04
2023-01-09T12:50:03.832Z,9.03
2023-01-09T12:51:03.847Z,9.08
2023-01-09T12:52:03.775Z,9.15
2023-01-09T12:53:03.857Z,9.10
2023-01-09T12:54:03.749Z,9.22
2023-01-09T12:55:05.097Z,9.10
2023-01-09T12:56:04.726Z,9.10
2023-01-09T12:57:03.767Z,9.27
2023-01-09T12:58:03.725Z,9.27
2023-01-09T12:59:03.740Z,9.20
2023-01-09T13:00:03.709Z,9.26
2023-01-09T13:01:03.770Z,9.40
2023-01-09T13:02:03.795Z,9.37
2023-01-09T13:03:12.023Z,9.41
2023-01-09T13:04:05.726Z,9.50
2023-01-09T13:05:03.715Z,9.50
2023-01-09T13:06:03.685Z,9.49
2023-01-09T13:07:03.684Z,9.37
2023-01-09T13:08:04.727Z,9.35
2023-01-09T13:09:03.668Z,9.40
2023-01-09T13:10:03.671Z,9.40
2023-01-09T13:11:18.847Z,9.44
2023-01-09T13:12:07.632Z,9.41
2023-01-09T13:13:03.808Z,9.50
2023-01-09T13:14:03.623Z,9.22
2023-01-09T13:15:03.633Z,9.19
2023-01-09T13:16:03.658Z,9.37
2023-01-09T13:17:06.132Z,9.40
2023-01-09T13:18:03.674Z,9.30